Time;durP1;ratioP1;P1;durP2;ratioP2;P2;SDS_P1;SDS_P2;PMS_P1;PMS_P2;Temp;Humidity;BMP_temperature;BMP_pressure;BME280_temperature;BME280_humidity;BME280_pressure;Samples;Min_cycle;Max_cycle;Signal;HPM_P1;HPM_P2
2022/10/18 00:00:51;;;;;;;165.10;30.45;;;15.30;99.90;;;;;;6271604;22;20433;-71
2022/10/18 00:03:17;;;;;;;64.40;24.67;;;15.30;99.90;;;;;;6273329;22;20476;-71
2022/10/18 00:05:42;;;;;;;282.15;33.70;;;15.20;99.90;;;;;;6273862;22;19999;-71
2022/10/18 00:08:08;;;;;;;61.20;26.27;;;15.30;99.90;;;;;;6272634;22;20000;-71
2022/10/18 00:10:34;;;;;;;70.28;26.23;;;15.30;99.90;;;;;;6273676;22;20089;-71
2022/10/18 00:12:59;;;;;;;93.40;29.15;;;15.30;99.90;;;;;;6274091;22;20014;-71
2022/10/18 00:15:25;;;;;;;97.03;28.60;;;15.00;99.90;;;;;;6273155;22;20374;-71
2022/10/18 00:17:50;;;;;;;52.80;26.05;;;15.30;99.90;;;;;;6273930;22;19995;-71
2022/10/18 00:20:16;;;;;;;69.55;27.58;;;17.40;99.90;;;;;;6273694;22;20027;-71
2022/10/18 00:22:41;;;;;;;98.50;29.50;;;15.30;99.90;;;;;;6273583;22;20008;-71
2022/10/18 00:25:08;;;;;;;118.60;28.05;;;15.30;99.90;;;;;;6274085;22;20054;-71
2022/10/18 00:27:34;;;;;;;56.08;29.13;;;15.40;99.90;;;;;;6273574;22;20000;-71
2022/10/18 00:30:00;;;;;;;156.43;32.30;;;15.40;99.90;;;;;;6273150;22;20075;-71
2022/10/18 00:32:26;;;;;;;146.75;33.28;;;15.40;99.90;;;;;;6273748;22;20398;-71
2022/10/18 00:34:51;;;;;;;50.95;28.35;;;15.40;99.90;;;;;;6273617;22;20053;-71
2022/10/18 00:37:17;;;;;;;74.15;29.15;;;15.50;99.90;;;;;;6273474;22;19991;-71
2022/10/18 00:39:43;;;;;;;85.72;32.83;;;15.50;99.90;;;;;;6273569;22;20023;-71
2022/10/18 00:42:19;;;;;;;139.95;31.67;;;15.40;99.90;;;;;;6273870;22;20007;-71
2022/10/18 00:44:44;;;;;;;66.20;30.77;;;15.50;99.90;;;;;;6272893;22;20004;-71
2022/10/18 00:47:13;;;;;;;232.90;38.75;;;16.30;99.90;;;;;;6273920;22;20299;-72
2022/10/18 00:49:43;;;;;;;77.95;30.65;;;15.50;99.90;;;;;;6273145;22;20048;-71
2022/10/18 00:52:18;;;;;;;54.83;29.33;;;15.50;99.90;;;;;;6272999;22;20302;-71
2022/10/18 00:54:45;;;;;;;81.05;31.25;;;15.50;99.90;;;;;;6272868;22;20452;-71
2022/10/18 00:57:12;;;;;;;148.27;32.85;;;15.50;99.90;;;;;;6272951;22;20699;-71
2022/10/18 00:59:41;;;;;;;92.00;31.83;;;15.60;99.90;;;;;;6273062;22;19996;-71
2022/10/18 01:02:07;;;;;;;393.88;42.42;;;15.60;99.90;;;;;;6273994;22;20007;-71
2022/10/18 01:04:33;;;;;;;98.88;29.80;;;15.60;99.90;;;;;;6273498;22;20004;-71
2022/10/18 01:07:14;;;;;;;58.10;30.80;;;16.10;99.90;;;;;;6273260;22;20085;-71
2022/10/18 01:10:01;;;;;;;122.90;33.63;;;15.70;99.90;;;;;;6273181;22;20367;-71
2022/10/18 01:13:09;;;;;;;112.43;32.35;;;15.70;99.90;;;;;;6272679;22;19999;-71
2022/10/18 01:15:45;;;;;;;232.52;34.10;;;15.60;99.90;;;;;;6272982;22;20900;-71
2022/10/18 01:18:36;;;;;;;95.90;31.45;;;16.60;99.90;;;;;;6273588;22;19996;-71
2022/10/18 01:21:32;;;;;;;151.30;32.58;;;15.60;99.90;;;;;;6273818;22;20130;-71
2022/10/18 01:24:15;;;;;;;66.75;28.95;;;15.60;99.90;;;;;;6273069;22;20011;-72
2022/10/18 01:26:53;;;;;;;76.75;30.27;;;15.60;99.90;;;;;;6272690;22;20003;-71
2022/10/18 01:29:31;;;;;;;146.75;31.10;;;15.60;99.90;;;;;;6273318;22;20377;-71
2022/10/18 01:32:00;;;;;;;93.82;31.15;;;15.60;99.90;;;;;;6273352;22;20018;-71
2022/10/18 01:34:30;;;;;;;89.20;31.13;;;16.30;99.90;;;;;;6272849;22;20083;-71
2022/10/18 01:36:57;;;;;;;100.70;29.75;;;15.60;99.90;;;;;;6271395;22;20078;-71
2022/10/18 01:39:31;;;;;;;148.73;30.20;;;15.60;99.90;;;;;;6272873;22;20075;-71
2022/10/18 01:42:00;;;;;;;208.90;34.13;;;15.60;99.90;;;;;;6272534;22;20398;-72
2022/10/18 01:44:30;;;;;;;57.80;30.48;;;15.60;99.90;;;;;;6272796;22;20082;-72
2022/10/18 01:46:57;;;;;;;168.95;31.40;;;15.60;99.90;;;;;;6273241;22;19996;-71
2022/10/18 01:49:24;;;;;;;77.50;27.88;;;15.20;99.90;;;;;;6272834;22;20442;-72
2022/10/18 01:51:50;;;;;;;158.02;31.63;;;15.60;99.90;;;;;;6272979;22;20003;-72
2022/10/18 01:54:21;;;;;;;94.28;30.90;;;15.60;99.90;;;;;;6272583;22;20482;-71
2022/10/18 01:56:55;;;;;;;91.47;29.63;;;15.30;99.90;;;;;;6272478;22;20007;-71
2022/10/18 01:59:32;;;;;;;188.15;31.67;;;15.50;99.90;;;;;;6273169;22;20000;-72
2022/10/18 02:02:23;;;;;;;122.75;29.70;;;15.60;99.90;;;;;;6273064;22;20412;-71
2022/10/18 02:04:58;;;;;;;163.77;30.00;;;15.50;99.90;;;;;;6272922;22;20053;-71
2022/10/18 02:07:34;;;;;;;42.83;25.23;;;15.50;99.90;;;;;;6272599;22;20138;-72
2022/10/18 02:10:11;;;;;;;89.72;26.27;;;15.50;99.90;;;;;;6272168;22;19995;-71
2022/10/18 02:12:40;;;;;;;90.05;26.75;;;15.50;99.90;;;;;;6271686;22;20000;-72
2022/10/18 02:15:08;;;;;;;40.60;26.70;;;15.50;99.90;;;;;;6269923;22;20031;-72
2022/10/18 02:17:35;;;;;;;107.75;30.10;;;15.50;99.90;;;;;;6269941;22;20429;-71
2022/10/18 02:20:02;;;;;;;174.35;30.38;;;15.50;99.90;;;;;;6270004;22;20019;-71
2022/10/18 02:22:32;;;;;;;60.78;27.13;;;15.40;99.90;;;;;;6269682;22;20015;-71
2022/10/18 02:25:00;;;;;;;52.05;26.90;;;15.40;99.90;;;;;;6269500;22;20078;-71
2022/10/18 02:27:26;;;;;;;136.98;31.55;;;15.50;99.90;;;;;;6269946;22;19996;-71
2022/10/18 02:29:52;;;;;;;120.25;28.00;;;15.40;99.90;;;;;;6271798;22;20000;-71
2022/10/18 02:32:47;;;;;;;76.15;27.70;;;15.40;99.90;;;;;;6272521;22;19999;-71
2022/10/18 02:35:23;;;;;;;62.33;25.48;;;15.60;99.90;;;;;;6213343;22;20034;-71
2022/10/18 02:37:50;;;;;;;128.15;29.90;;;15.30;99.90;;;;;;6272530;22;20007;-71
2022/10/18 02:40:16;;;;;;;104.03;28.38;;;15.40;99.90;;;;;;6271436;22;20524;-71
2022/10/18 02:42:53;;;;;;;42.22;27.00;;;15.30;99.90;;;;;;6272503;22;20027;-71
2022/10/18 02:45:19;;;;;;;102.15;28.63;;;15.40;99.90;;;;;;6272236;22;19996;-71
2022/10/18 02:47:44;;;;;;;99.15;29.38;;;15.40;99.90;;;;;;6272606;22;20042;-72
2022/10/18 02:50:10;;;;;;;186.98;33.10;;;15.40;99.90;;;;;;6272385;22;20084;-72
2022/10/18 02:52:36;;;;;;;75.85;29.55;;;15.70;99.90;;;;;;6271968;22;20011;-71
2022/10/18 02:55:02;;;;;;;52.58;28.08;;;15.30;99.90;;;;;;6271468;22;20010;-71
2022/10/18 02:57:27;;;;;;;81.07;28.52;;;15.20;99.90;;;;;;6271885;22;20149;-71
2022/10/18 02:59:53;;;;;;;73.53;26.83;;;15.20;99.90;;;;;;6272173;22;20004;-71
2022/10/18 03:02:18;;;;;;;127.32;30.65;;;15.30;99.90;;;;;;6271961;22;20000;-71
2022/10/18 03:04:44;;;;;;;63.53;27.83;;;15.10;99.90;;;;;;6272119;22;20071;-71
2022/10/18 03:07:09;;;;;;;52.15;26.10;;;15.10;99.90;;;;;;6272290;22;20098;-72
2022/10/18 03:09:35;;;;;;;83.82;27.83;;;15.00;99.90;;;;;;6271325;22;20065;-72
2022/10/18 03:12:00;;;;;;;81.95;26.92;;;15.00;99.90;;;;;;6272048;22;20014;-72
2022/10/18 03:14:26;;;;;;;56.40;27.15;;;16.90;99.90;;;;;;6271693;22;20065;-72
2022/10/18 03:16:51;;;;;;;54.95;26.63;;;15.10;99.90;;;;;;6272120;22;20079;-72
2022/10/18 03:19:17;;;;;;;89.93;27.98;;;15.80;99.90;;;;;;6271880;22;20350;-72
2022/10/18 03:21:42;;;;;;;113.55;28.90;;;14.90;99.90;;;;;;6271746;22;20012;-72
2022/10/18 03:24:08;;;;;;;60.03;23.95;;;15.00;99.90;;;;;;6271704;22;19996;-72
2022/10/18 03:26:34;;;;;;;48.35;26.05;;;14.90;99.90;;;;;;6271713;22;20034;-72
2022/10/18 03:28:59;;;;;;;56.25;26.52;;;15.00;99.90;;;;;;6270330;22;20026;-72
2022/10/18 03:31:25;;;;;;;34.63;24.70;;;15.70;99.90;;;;;;6271824;22;20007;-73
2022/10/18 03:33:50;;;;;;;71.45;26.05;;;15.00;99.90;;;;;;6271479;22;20131;-71
2022/10/18 03:36:16;;;;;;;77.38;27.20;;;16.30;99.90;;;;;;6271607;22;19996;-72
2022/10/18 03:38:42;;;;;;;60.95;24.95;;;16.10;99.90;;;;;;6271140;22;20433;-72
2022/10/18 03:41:07;;;;;;;34.75;23.05;;;15.50;99.90;;;;;;6272102;22;20006;-72
2022/10/18 03:43:33;;;;;;;50.75;25.92;;;14.80;99.90;;;;;;6271682;22;20027;-72
2022/10/18 03:45:59;;;;;;;46.67;25.58;;;14.80;99.90;;;;;;6271887;22;20071;-72
2022/10/18 03:48:24;;;;;;;46.20;25.67;;;16.10;99.90;;;;;;6271529;22;20004;-72
2022/10/18 03:50:50;;;;;;;88.85;27.75;;;14.60;99.90;;;;;;6271530;22;20035;-72
2022/10/18 03:53:15;;;;;;;50.05;26.50;;;14.90;99.90;;;;;;6270974;22;20004;-72
2022/10/18 03:55:41;;;;;;;61.63;27.48;;;15.50;99.90;;;;;;6271709;22;20057;-72
2022/10/18 03:58:07;;;;;;;38.67;25.25;;;14.90;99.90;;;;;;6272206;22;19999;-72
2022/10/18 04:00:32;;;;;;;101.30;27.90;;;14.90;99.90;;;;;;6271673;22;20475;-72
2022/10/18 04:03:01;;;;;;;70.78;27.90;;;14.80;99.90;;;;;;6271976;22;20073;-72
2022/10/18 04:05:29;;;;;;;49.50;27.65;;;16.70;99.90;;;;;;6271268;22;20012;-72
2022/10/18 04:07:55;;;;;;;150.82;30.42;;;14.80;99.90;;;;;;6271868;22;20070;-71
2022/10/18 04:10:21;;;;;;;54.17;26.30;;;14.70;99.90;;;;;;6271616;22;20074;-72
2022/10/18 04:12:46;;;;;;;39.70;25.45;;;14.80;99.90;;;;;;6271807;22;20000;-72
2022/10/18 04:15:12;;;;;;;149.20;29.33;;;14.80;99.90;;;;;;6272029;22;20093;-72
2022/10/18 04:17:37;;;;;;;51.70;26.88;;;14.80;99.90;;;;;;6271291;22;20007;-72
2022/10/18 04:20:03;;;;;;;63.83;27.15;;;14.70;99.90;;;;;;6271797;22;20008;-72
2022/10/18 04:22:29;;;;;;;42.50;26.27;;;14.70;99.90;;;;;;6271577;22;20659;-72
2022/10/18 04:24:55;;;;;;;42.28;26.13;;;14.70;99.90;;;;;;6271244;22;20008;-72
2022/10/18 04:27:21;;;;;;;80.95;28.08;;;14.70;99.90;;;;;;6271460;22;19999;-72
2022/10/18 04:29:47;;;;;;;49.83;26.63;;;14.60;99.90;;;;;;6271276;22;20409;-72
2022/10/18 04:32:13;;;;;;;31.33;24.25;;;14.60;99.90;;;;;;6271522;22;20007;-72
2022/10/18 04:34:38;;;;;;;40.10;25.70;;;14.70;99.90;;;;;;6270211;22;20004;-72
2022/10/18 04:37:04;;;;;;;60.05;25.58;;;14.60;99.90;;;;;;6271573;22;20034;-72
2022/10/18 04:39:29;;;;;;;42.58;25.00;;;14.60;99.90;;;;;;6270351;22;20004;-72
2022/10/18 04:41:55;;;;;;;52.42;25.50;;;14.50;99.90;;;;;;6271117;22;20069;-72
2022/10/18 04:44:20;;;;;;;72.47;27.27;;;14.40;99.90;;;;;;6271076;22;20004;-72
2022/10/18 04:46:46;;;;;;;46.28;25.25;;;14.60;99.90;;;;;;6271561;22;20004;-72
2022/10/18 04:49:11;;;;;;;41.22;24.75;;;14.50;99.90;;;;;;6271332;22;20333;-72
2022/10/18 04:51:37;;;;;;;51.67;26.40;;;14.40;99.90;;;;;;6272958;22;20421;-72
2022/10/18 04:54:02;;;;;;;48.65;25.00;;;14.60;99.90;;;;;;6273881;22;20098;-72
2022/10/18 04:56:28;;;;;;;42.28;24.30;;;14.50;99.90;;;;;;6273384;22;20361;-72
2022/10/18 04:58:53;;;;;;;42.05;25.52;;;14.50;99.90;;;;;;6273673;22;19996;-72
2022/10/18 05:01:19;;;;;;;56.75;26.95;;;14.50;99.90;;;;;;6273246;22;20003;-72
2022/10/18 05:03:44;;;;;;;39.25;24.52;;;15.10;99.90;;;;;;6272921;22;20010;-72
2022/10/18 05:06:10;;;;;;;39.03;24.80;;;14.40;99.90;;;;;;6273427;22;20003;-72
2022/10/18 05:08:36;;;;;;;31.25;23.40;;;14.50;99.90;;;;;;6273208;22;20083;-72
2022/10/18 05:11:02;;;;;;;35.28;24.30;;;15.00;99.90;;;;;;6273484;22;20006;-72
2022/10/18 05:13:28;;;;;;;29.15;23.77;;;14.50;99.90;;;;;;6273033;22;20008;-72
2022/10/18 05:15:54;;;;;;;39.83;23.33;;;14.40;99.90;;;;;;6273157;22;20023;-72
2022/10/18 05:18:20;;;;;;;44.75;24.55;;;14.40;99.90;;;;;;6272696;22;20037;-72
2022/10/18 05:20:45;;;;;;;59.50;25.42;;;14.40;99.90;;;;;;6273202;22;20328;-72
2022/10/18 05:23:11;;;;;;;44.67;23.08;;;14.40;99.90;;;;;;6273288;22;20425;-72
2022/10/18 05:25:38;;;;;;;38.10;23.85;;;14.40;99.90;;;;;;6272699;22;20078;-72
2022/10/18 05:28:04;;;;;;;50.03;24.55;;;14.50;99.90;;;;;;6273428;22;20052;-72
2022/10/18 05:30:30;;;;;;;57.13;25.40;;;14.50;99.90;;;;;;6272786;22;20003;-72
2022/10/18 05:32:55;;;;;;;61.05;24.95;;;14.40;99.90;;;;;;6272342;22;20008;-72
2022/10/18 05:35:20;;;;;;;36.08;23.08;;;14.40;99.90;;;;;;6272796;22;20069;-72
2022/10/18 05:37:47;;;;;;;40.55;22.52;;;14.40;99.90;;;;;;6272850;22;20027;-72
2022/10/18 05:40:12;;;;;;;50.80;24.95;;;14.40;99.90;;;;;;6273168;22;20019;-72
2022/10/18 05:42:38;;;;;;;48.35;25.48;;;14.50;99.90;;;;;;6272364;22;20460;-73
2022/10/18 05:45:04;;;;;;;91.70;27.20;;;14.30;99.90;;;;;;6273269;22;20006;-72
2022/10/18 05:47:30;;;;;;;71.88;26.08;;;14.40;99.90;;;;;;6272171;22;20004;-72
2022/10/18 05:49:56;;;;;;;70.30;26.38;;;14.10;99.90;;;;;;6272699;22;20052;-72
2022/10/18 05:52:21;;;;;;;82.65;26.45;;;14.40;99.90;;;;;;6272775;22;20044;-72
2022/10/18 05:54:47;;;;;;;115.28;27.58;;;14.40;99.90;;;;;;6270929;22;20318;-72
2022/10/18 05:57:12;;;;;;;65.32;25.80;;;14.40;99.90;;;;;;6272863;22;20456;-74
2022/10/18 05:59:38;;;;;;;44.00;23.95;;;14.40;99.90;;;;;;6272322;22;20074;-72
2022/10/18 06:02:03;;;;;;;82.70;27.25;;;14.40;99.90;;;;;;6272607;22;20063;-72
2022/10/18 06:04:29;;;;;;;42.63;26.17;;;15.50;99.90;;;;;;6272530;22;20004;-71
2022/10/18 06:06:55;;;;;;;69.00;25.83;;;14.40;99.90;;;;;;6272537;22;20527;-71
2022/10/18 06:09:20;;;;;;;61.08;26.52;;;15.40;99.90;;;;;;6272226;22;20317;-71
2022/10/18 06:11:46;;;;;;;89.63;27.20;;;14.40;99.90;;;;;;6272540;22;20004;-71
2022/10/18 06:14:11;;;;;;;61.22;25.10;;;14.50;99.90;;;;;;6272464;22;20439;-71
2022/10/18 06:16:37;;;;;;;81.38;26.77;;;14.40;99.90;;;;;;6271278;22;20004;-71
2022/10/18 06:19:02;;;;;;;45.20;24.75;;;14.30;99.90;;;;;;6272793;22;20000;-71
2022/10/18 06:21:28;;;;;;;105.65;27.42;;;14.40;99.90;;;;;;6272115;22;20000;-71
2022/10/18 06:23:56;;;;;;;117.50;25.70;;;14.40;99.90;;;;;;6272284;22;19996;-71
2022/10/18 06:26:22;;;;;;;78.38;24.83;;;14.30;99.90;;;;;;6272120;22;20325;-71
2022/10/18 06:28:48;;;;;;;71.07;24.42;;;14.30;99.90;;;;;;6272678;22;20078;-71
2022/10/18 06:31:14;;;;;;;51.50;24.67;;;15.40;99.90;;;;;;6271924;22;20018;-72
2022/10/18 06:33:40;;;;;;;57.22;24.35;;;15.00;99.90;;;;;;6271959;22;19999;-71
2022/10/18 06:36:26;;;;;;;59.53;24.67;;;14.30;99.90;;;;;;6272493;22;20008;-72
2022/10/18 06:38:53;;;;;;;81.30;25.30;;;14.40;99.90;;;;;;6271446;22;20007;-71
2022/10/18 06:41:19;;;;;;;81.32;24.63;;;14.30;99.90;;;;;;6269992;22;20078;-72
2022/10/18 06:43:55;;;;;;;51.53;22.90;;;14.40;99.90;;;;;;6270195;22;19999;-71
2022/10/18 06:46:21;;;;;;;37.55;21.23;;;14.30;99.90;;;;;;6270401;22;20019;-71
2022/10/18 06:48:46;;;;;;;52.85;22.33;;;14.40;99.90;;;;;;6272237;22;19996;-71
2022/10/18 06:51:13;;;;;;;54.97;21.33;;;14.50;99.90;;;;;;6272524;22;20003;-71
2022/10/18 06:53:40;;;;;;;47.00;19.65;;;14.50;99.90;;;;;;6269699;22;20456;-71
2022/10/18 06:56:09;;;;;;;68.75;21.02;;;14.40;99.90;;;;;;6272269;22;19999;-71
2022/10/18 06:58:35;;;;;;;39.22;20.08;;;14.50;99.90;;;;;;6272156;22;20370;-71
2022/10/18 07:01:06;;;;;;;52.17;20.67;;;14.50;99.90;;;;;;6271493;22;20023;-72
2022/10/18 07:03:33;;;;;;;52.03;20.17;;;14.50;99.90;;;;;;6271834;22;20023;-72
2022/10/18 07:06:07;;;;;;;44.63;18.58;;;14.50;99.90;;;;;;6271748;22;20060;-72
2022/10/18 07:08:33;;;;;;;37.00;19.05;;;15.40;99.90;;;;;;6271747;22;20004;-72
2022/10/18 07:10:59;;;;;;;38.95;20.85;;;15.20;99.90;;;;;;6268076;22;19999;-71
2022/10/18 07:13:29;;;;;;;32.17;18.38;;;14.50;99.90;;;;;;6269247;22;20108;-71
2022/10/18 07:16:07;;;;;;;29.55;18.77;;;14.50;99.90;;;;;;6270586;22;20063;-72
2022/10/18 07:18:37;;;;;;;34.22;19.23;;;14.50;99.90;;;;;;6269104;22;20004;-72
2022/10/18 07:21:08;;;;;;;32.13;20.05;;;14.50;99.90;;;;;;6271727;22;20432;-71
2022/10/18 07:23:36;;;;;;;30.38;17.83;;;14.50;99.90;;;;;;6268367;22;20014;-71
2022/10/18 07:26:03;;;;;;;36.13;17.60;;;13.70;99.90;;;;;;6270737;22;20007;-71
2022/10/18 07:28:29;;;;;;;35.35;18.45;;;14.80;99.90;;;;;;6268869;22;19995;-72
2022/10/18 07:30:55;;;;;;;39.75;20.80;;;14.30;99.90;;;;;;6269486;22;20080;-72
2022/10/18 07:33:20;;;;;;;33.17;20.02;;;14.30;99.90;;;;;;6270042;22;20132;-71
2022/10/18 07:35:46;;;;;;;32.58;19.27;;;14.40;99.90;;;;;;6269639;22;20026;-71
2022/10/18 07:38:12;;;;;;;37.45;20.30;;;14.30;99.90;;;;;;6270202;22;20007;-71
2022/10/18 07:40:38;;;;;;;34.20;19.08;;;14.20;99.90;;;;;;6268954;22;19995;-71
2022/10/18 07:43:03;;;;;;;28.33;18.58;;;14.30;99.90;;;;;;6268295;22;20079;-71
2022/10/18 07:45:29;;;;;;;34.88;19.63;;;14.10;99.90;;;;;;6269956;22;20063;-71
2022/10/18 07:47:55;;;;;;;26.27;17.70;;;14.10;99.90;;;;;;6271581;22;20004;-71
2022/10/18 07:50:21;;;;;;;23.30;16.92;;;14.10;99.90;;;;;;6270747;22;20283;-71
2022/10/18 07:52:47;;;;;;;32.45;18.58;;;14.00;99.90;;;;;;6270454;22;20483;-71
2022/10/18 07:55:12;;;;;;;29.42;17.38;;;13.90;99.90;;;;;;6269841;22;20405;-71
2022/10/18 07:57:38;;;;;;;26.35;17.73;;;13.80;99.90;;;;;;6270126;22;20046;-71
2022/10/18 08:00:04;;;;;;;29.38;19.30;;;13.80;99.90;;;;;;6271436;22;20032;-71
2022/10/18 08:02:30;;;;;;;31.73;18.90;;;13.70;99.90;;;;;;6269327;22;20335;-71
2022/10/18 08:04:55;;;;;;;24.63;16.98;;;13.70;99.90;;;;;;6270406;22;20027;-71
2022/10/18 08:07:21;;;;;;;28.25;16.83;;;13.70;99.90;;;;;;6270629;22;20008;-71
2022/10/18 08:09:46;;;;;;;27.20;17.17;;;13.70;99.90;;;;;;6271275;22;20071;-69
2022/10/18 08:12:14;;;;;;;31.17;16.60;;;13.80;99.90;;;;;;6269944;22;20030;-71
2022/10/18 08:14:39;;;;;;;26.17;16.48;;;13.70;99.90;;;;;;6268913;22;20039;-71
2022/10/18 08:17:05;;;;;;;24.80;15.48;;;13.70;99.90;;;;;;6269516;22;20010;-71
2022/10/18 08:19:31;;;;;;;22.30;16.75;;;13.80;99.90;;;;;;6270025;22;19996;-71
2022/10/18 08:21:56;;;;;;;24.67;16.50;;;13.80;99.90;;;;;;6271010;22;20465;-71
2022/10/18 08:24:22;;;;;;;30.88;16.88;;;13.80;99.90;;;;;;6270005;22;20076;-71
2022/10/18 08:26:49;;;;;;;29.45;17.77;;;13.80;99.90;;;;;;6272479;22;20017;-72
2022/10/18 08:29:14;;;;;;;23.25;17.17;;;13.90;99.90;;;;;;6273345;22;20066;-71
2022/10/18 08:31:40;;;;;;;29.13;17.67;;;13.80;99.90;;;;;;6272984;22;20333;-71
2022/10/18 08:34:05;;;;;;;29.13;17.77;;;13.90;99.90;;;;;;6269763;22;20171;-71
2022/10/18 08:36:31;;;;;;;22.90;16.10;;;13.90;99.90;;;;;;6272465;22;20007;-71
2022/10/18 08:38:57;;;;;;;24.98;16.48;;;13.90;99.90;;;;;;6272086;22;20007;-71
2022/10/18 08:41:32;;;;;;;23.83;16.48;;;14.00;99.90;;;;;;6270148;22;20076;-71
2022/10/18 08:44:34;;;;;;;24.45;17.30;;;14.00;99.90;;;;;;6271802;22;20003;-71
2022/10/18 08:47:03;;;;;;;20.73;14.80;;;14.10;99.90;;;;;;6244550;22;20433;-71
2022/10/18 08:49:49;;;;;;;17.65;13.57;;;14.10;99.90;;;;;;6272504;22;20078;-71
2022/10/18 08:52:27;;;;;;;15.65;10.75;;;14.30;99.90;;;;;;6273084;22;20084;-72
2022/10/18 08:55:02;;;;;;;16.33;7.97;;;14.30;99.90;;;;;;6271615;22;20086;-72
2022/10/18 08:57:29;;;;;;;13.45;7.13;;;14.40;99.90;;;;;;6270125;22;20083;-72
2022/10/18 08:59:55;;;;;;;13.70;7.65;;;14.40;99.90;;;;;;6272052;22;20015;-72
2022/10/18 09:02:24;;;;;;;14.75;7.45;;;14.30;99.90;;;;;;6272648;22;19999;-72
2022/10/18 09:05:14;;;;;;;13.25;7.78;;;14.50;99.90;;;;;;6271461;22;20014;-72
2022/10/18 09:08:09;;;;;;;8.88;6.40;;;14.40;99.90;;;;;;6271175;22;20027;-72
2022/10/18 09:10:40;;;;;;;;;;;14.60;99.90;;;;;;6272492;22;20014;-72
2022/10/18 09:13:17;;;;;;;11.25;6.45;;;14.60;99.90;;;;;;6272846;22;19903;-72
2022/10/18 09:15:59;;;;;;;14.98;6.32;;;14.60;99.90;;;;;;6271388;22;20007;-72
2022/10/18 09:18:30;;;;;;;15.23;6.03;;;14.60;99.90;;;;;;6271429;22;20012;-72
2022/10/18 09:20:58;;;;;;;10.40;4.68;;;14.60;99.90;;;;;;6272126;22;20067;-72
2022/10/18 09:23:39;;;;;;;13.25;5.05;;;14.70;99.90;;;;;;6271788;22;20421;-72
2022/10/18 09:26:18;;;;;;;12.73;4.55;;;14.80;99.90;;;;;;6271780;22;20071;-72
2022/10/18 09:29:12;;;;;;;10.57;3.95;;;14.80;99.90;;;;;;6271237;22;20224;-72
2022/10/18 09:31:46;;;;;;;17.13;5.40;;;14.80;99.90;;;;;;6272004;22;19999;-72
2022/10/18 09:34:28;;;;;;;14.38;3.55;;;14.80;99.90;;;;;;6270136;22;19996;-72
2022/10/18 09:36:54;;;;;;;12.02;3.38;;;15.00;99.90;;;;;;6272068;22;20440;-72
2022/10/18 09:39:31;;;;;;;10.88;3.50;;;14.70;99.90;;;;;;6268549;22;20019;-72
2022/10/18 09:42:06;;;;;;;8.80;3.13;;;15.00;99.90;;;;;;6271590;22;20023;-72
2022/10/18 09:44:38;;;;;;;8.43;3.55;;;15.00;99.90;;;;;;6270379;22;20050;-72
2022/10/18 09:47:20;;;;;;;8.75;3.30;;;15.20;99.90;;;;;;6270724;22;19995;-72
2022/10/18 09:49:57;;;;;;;12.38;3.25;;;15.10;99.90;;;;;;6270885;22;20019;-72
2022/10/18 09:52:50;;;;;;;8.85;3.03;;;15.30;99.90;;;;;;6270079;22;20027;-72
2022/10/18 09:55:22;;;;;;;11.13;3.40;;;15.20;99.90;;;;;;6268402;22;20011;-72
2022/10/18 09:57:56;;;;;;;7.32;1.83;;;15.20;99.90;;;;;;6269911;22;20625;-72
2022/10/18 10:00:33;;;;;;;7.20;1.88;;;15.40;99.90;;;;;;6271263;22;20157;-72
2022/10/18 10:03:00;;;;;;;8.70;2.03;;;15.50;99.90;;;;;;6269883;22;20063;-72
2022/10/18 10:05:26;;;;;;;8.82;1.92;;;15.50;99.90;;;;;;6269075;22;20008;-72
2022/10/18 10:07:58;;;;;;;5.90;1.20;;;15.60;99.90;;;;;;6271556;22;20061;-72
2022/10/18 10:10:27;;;;;;;8.75;1.30;;;15.60;99.90;;;;;;6270080;22;20029;-72
2022/10/18 10:13:21;;;;;;;7.45;1.40;;;15.70;99.90;;;;;;6270237;22;20000;-72
2022/10/18 10:15:54;;;;;;;;;;;15.70;99.90;;;;;;6270214;22;20014;-72
2022/10/18 10:18:26;;;;;;;2.97;1.10;;;15.70;99.90;;;;;;6271564;22;20309;-71
2022/10/18 10:20:54;;;;;;;6.38;1.33;;;15.70;99.90;;;;;;6271849;22;20003;-71
2022/10/18 10:23:29;;;;;;;4.57;1.23;;;15.70;99.90;;;;;;6269221;22;20015;-72
2022/10/18 10:25:56;;;;;;;6.47;1.25;;;15.80;99.90;;;;;;6271301;22;20050;-72
2022/10/18 10:28:35;;;;;;;10.25;1.60;;;15.70;99.90;;;;;;6271534;22;20145;-72
2022/10/18 10:31:35;;;;;;;4.60;1.10;;;15.90;99.90;;;;;;6271388;22;20311;-72
2022/10/18 10:34:12;;;;;;;5.30;1.00;;;15.80;99.90;;;;;;6269352;22;20008;-72
2022/10/18 10:36:53;;;;;;;8.25;1.13;;;15.80;99.90;;;;;;6271181;22;20070;-71
2022/10/18 10:39:21;;;;;;;3.38;1.15;;;15.80;99.90;;;;;;6269248;22;20003;-72
2022/10/18 10:41:54;;;;;;;6.20;1.30;;;15.80;99.90;;;;;;6269539;22;20004;-72
2022/10/18 10:44:27;;;;;;;8.43;1.67;;;16.00;99.90;;;;;;6268328;22;20008;-72
2022/10/18 10:46:53;;;;;;;6.53;0.90;;;15.90;99.90;;;;;;6271684;22;20007;-72
2022/10/18 10:49:23;;;;;;;6.40;0.70;;;15.90;99.90;;;;;;6271749;22;20011;-72
2022/10/18 10:52:02;;;;;;;3.83;1.08;;;15.90;99.90;;;;;;6271104;22;19996;-72
2022/10/18 10:54:34;;;;;;;4.35;0.63;;;15.80;99.90;;;;;;6270329;22;20006;-72
2022/10/18 10:57:09;;;;;;;4.95;1.10;;;15.80;99.90;;;;;;6270808;22;19995;-71
2022/10/18 10:59:53;;;;;;;2.95;0.70;;;15.70;99.90;;;;;;6271752;22;20078;-72
2022/10/18 11:02:22;;;;;;;6.70;0.80;;;15.80;99.90;;;;;;6271336;22;20054;-72
2022/10/18 11:04:50;;;;;;;9.90;1.20;;;16.60;99.90;;;;;;6270516;22;20118;-72
2022/10/18 11:07:21;;;;;;;4.47;1.40;;;15.90;99.90;;;;;;6269048;22;20590;-71
2022/10/18 11:09:59;;;;;;;9.57;1.13;;;15.80;99.90;;;;;;6271468;22;20333;-72
2022/10/18 11:12:31;;;;;;;5.07;0.65;;;15.90;99.90;;;;;;6271331;22;20007;-72
2022/10/18 11:15:37;;;;;;;8.00;0.93;;;16.00;99.90;;;;;;6268065;22;20018;-72
2022/10/18 11:18:08;;;;;;;5.72;0.90;;;16.10;99.90;;;;;;6270018;22;20053;-72
2022/10/18 11:20:36;;;;;;;9.70;1.65;;;16.10;99.90;;;;;;6270704;22;20004;-72
2022/10/18 11:23:06;;;;;;;4.50;0.80;;;16.20;99.90;;;;;;6271331;22;20004;-72
2022/10/18 11:25:46;;;;;;;7.65;0.98;;;16.20;99.90;;;;;;6269326;22;20038;-72
2022/10/18 11:28:30;;;;;;;13.82;1.02;;;16.30;99.90;;;;;;6269557;22;20026;-72
2022/10/18 11:31:20;;;;;;;12.95;1.88;;;16.30;99.90;;;;;;6270804;22;20438;-72
2022/10/18 11:34:03;;;;;;;10.90;1.65;;;16.20;99.90;;;;;;6269770;22;20402;-72
2022/10/18 11:37:13;;;;;;;6.65;0.95;;;16.10;99.90;;;;;;6270477;22;20003;-72
2022/10/18 11:39:56;;;;;;;6.30;1.05;;;16.10;99.90;;;;;;6145634;23;19998;-72
2022/10/18 11:42:47;;;;;;;6.40;0.98;;;16.20;99.90;;;;;;6147684;23;20056;-72
2022/10/18 11:45:42;;;;;;;8.40;1.40;;;16.10;99.90;;;;;;6146441;23;20006;-72
2022/10/18 11:48:26;;;;;;;;;;;16.20;99.90;;;;;;6148647;23;20339;-72
2022/10/18 11:51:11;;;;;;;4.75;0.90;;;16.10;99.90;;;;;;6145038;23;20279;-72
2022/10/18 11:53:42;;;;;;;3.00;1.00;;;16.00;99.90;;;;;;6145548;23;20013;-72
2022/10/18 11:56:29;;;;;;;4.32;1.70;;;15.90;99.90;;;;;;6147908;23;20033;-72
2022/10/18 11:59:13;;;;;;;6.90;1.25;;;16.10;99.90;;;;;;6148992;23;20113;-72
2022/10/18 12:02:09;;;;;;;8.23;1.10;;;16.10;99.90;;;;;;6147824;23;20006;-72
2022/10/18 12:04:42;;;;;;;7.50;1.55;;;16.00;99.90;;;;;;6146932;23;20048;-72
2022/10/18 12:07:13;;;;;;;7.72;2.03;;;16.00;99.90;;;;;;6149373;23;20009;-72
2022/10/18 12:09:42;;;;;;;9.00;1.75;;;16.00;99.90;;;;;;6149154;23;20001;-72
2022/10/18 12:12:16;;;;;;;5.85;1.60;;;16.00;99.90;;;;;;6124981;23;20009;-72
2022/10/18 12:14:56;;;;;;;7.30;1.08;;;16.20;99.90;;;;;;6148291;23;20498;-72
2022/10/18 12:17:35;;;;;;;7.50;1.25;;;16.10;99.90;;;;;;6247252;22;20004;-72
2022/10/18 12:20:12;;;;;;;7.50;1.40;;;16.10;99.90;;;;;;6272806;22;20026;-73
2022/10/18 12:22:43;;;;;;;7.40;1.17;;;16.20;99.90;;;;;;6271380;22;20617;-72
2022/10/18 12:25:13;;;;;;;7.78;1.70;;;16.20;99.90;;;;;;6272940;22;20086;-72
2022/10/18 12:27:52;;;;;;;5.93;1.10;;;16.30;99.90;;;;;;6272303;22;20070;-72
2022/10/18 12:30:52;;;;;;;10.52;1.42;;;16.40;99.90;;;;;;6271913;22;20079;-72
2022/10/18 12:33:22;;;;;;;6.78;1.33;;;16.40;99.90;;;;;;6271632;22;20053;-72
2022/10/18 12:36:09;;;;;;;5.60;1.17;;;17.00;99.90;;;;;;6272717;22;20198;-72
2022/10/18 12:38:40;;;;;;;6.13;1.90;;;16.40;99.90;;;;;;6271953;22;20076;-72
2022/10/18 12:41:06;;;;;;;6.75;0.80;;;16.50;99.90;;;;;;6272751;22;20039;-72
2022/10/18 12:43:35;;;;;;;3.75;0.80;;;16.40;99.90;;;;;;6272108;22;20077;-72
2022/10/18 12:46:04;;;;;;;8.48;0.85;;;16.50;99.90;;;;;;6272856;22;20011;-72
2022/10/18 12:48:41;;;;;;;4.78;0.73;;;16.50;99.90;;;;;;6271832;22;20057;-72